createdAt,value
2022-10-25T00:01:52.331Z,1.50
2022-10-25T00:06:50.166Z,1.60
2022-10-25T00:09:18.683Z,1.80
2022-10-25T00:11:48.512Z,1.40
2022-10-25T00:14:19.415Z,1.60
2022-10-25T00:16:47.868Z,1.80
2022-10-25T00:19:16.365Z,1.80
2022-10-25T00:21:44.872Z,1.97
2022-10-25T00:24:13.455Z,1.60
2022-10-25T00:26:42.318Z,2.07
2022-10-25T00:29:12.785Z,2.27
2022-10-25T00:31:41.246Z,1.70
2022-10-25T00:34:09.727Z,2.03
2022-10-25T00:36:38.150Z,2.13
2022-10-25T00:39:06.856Z,1.87
2022-10-25T00:41:36.036Z,1.73
2022-10-25T00:44:23.023Z,1.67
2022-10-25T00:46:53.950Z,1.93
2022-10-25T00:49:23.559Z,2.23
2022-10-25T00:51:54.380Z,1.97
2022-10-25T00:54:25.148Z,2.10
2022-10-25T00:56:54.109Z,2.20
2022-10-25T00:59:24.010Z,2.30
2022-10-25T01:01:54.147Z,2.40
2022-10-25T01:04:24.403Z,2.13
2022-10-25T01:06:53.580Z,2.20
2022-10-25T01:09:23.633Z,2.40
2022-10-25T01:11:52.107Z,2.90
2022-10-25T01:14:20.898Z,2.93
2022-10-25T01:16:55.124Z,2.80
2022-10-25T01:19:37.192Z,2.40
2022-10-25T01:22:07.743Z,2.77
2022-10-25T01:24:54.521Z,2.70
2022-10-25T01:27:40.666Z,2.83
2022-10-25T01:30:12.556Z,2.40
2022-10-25T01:32:46.083Z,2.17
2022-10-25T01:35:21.239Z,2.70
2022-10-25T01:37:57.830Z,2.67
2022-10-25T01:40:30.497Z,2.90
2022-10-25T01:43:02.343Z,2.90
2022-10-25T01:45:32.491Z,3.20
2022-10-25T01:48:06.943Z,2.80
2022-10-25T01:50:37.331Z,3.00
2022-10-25T01:53:05.755Z,3.10
2022-10-25T01:55:36.602Z,3.27
2022-10-25T01:58:08.804Z,3.27
2022-10-25T02:00:41.983Z,3.33
2022-10-25T02:03:18.223Z,3.77
2022-10-25T02:05:55.509Z,4.20
2022-10-25T02:08:30.269Z,4.40
2022-10-25T02:11:03.294Z,4.80
2022-10-25T02:13:34.789Z,5.40
2022-10-25T02:16:05.148Z,6.17
2022-10-25T02:18:36.765Z,6.13
2022-10-25T02:21:07.373Z,6.23
2022-10-25T02:23:36.742Z,7.03
2022-10-25T02:26:06.160Z,7.00
2022-10-25T02:28:35.275Z,6.77
2022-10-25T02:31:03.720Z,7.53
2022-10-25T02:33:32.286Z,7.47
2022-10-25T02:36:08.657Z,7.90
2022-10-25T02:38:37.304Z,8.00
2022-10-25T02:41:06.408Z,8.23
2022-10-25T02:43:35.181Z,8.53
2022-10-25T02:46:07.245Z,8.63
2022-10-25T02:48:35.820Z,8.33
2022-10-25T02:51:04.277Z,8.43
2022-10-25T02:53:34.523Z,8.53
2022-10-25T02:56:03.187Z,8.40
2022-10-25T02:58:31.986Z,8.23
2022-10-25T03:01:00.787Z,8.63
2022-10-25T03:03:29.623Z,10.00
2022-10-25T03:05:58.466Z,9.17
2022-10-25T03:10:58.457Z,9.47
2022-10-25T03:13:26.933Z,9.70
2022-10-25T03:15:55.536Z,9.57
2022-10-25T03:18:24.005Z,9.63
2022-10-25T03:20:52.848Z,9.57
2022-10-25T03:23:21.276Z,8.73
2022-10-25T03:25:54.301Z,9.07
2022-10-25T03:28:24.680Z,8.40
2022-10-25T03:30:53.157Z,9.10
2022-10-25T03:33:21.679Z,8.80
2022-10-25T03:35:51.939Z,8.13
2022-10-25T03:38:20.525Z,7.73
2022-10-25T03:40:49.023Z,7.73
2022-10-25T03:43:17.535Z,6.97
2022-10-25T03:45:47.459Z,6.90
2022-10-25T03:48:16.311Z,7.43
2022-10-25T03:50:44.767Z,6.97
2022-10-25T03:53:13.409Z,7.43
2022-10-25T03:55:41.969Z,6.57
2022-10-25T03:58:10.410Z,6.43
2022-10-25T04:00:39.081Z,6.67
2022-10-25T04:03:08.987Z,7.40
2022-10-25T04:05:37.463Z,6.87
2022-10-25T04:08:06.042Z,6.43
2022-10-25T04:10:34.516Z,7.33
2022-10-25T04:13:02.995Z,7.53
2022-10-25T04:15:31.459Z,7.13
2022-10-25T04:17:59.987Z,6.73
2022-10-25T04:20:29.883Z,7.27
2022-10-25T04:22:58.784Z,7.17
2022-10-25T04:25:27.787Z,6.43
2022-10-25T04:27:56.259Z,6.70
2022-10-25T04:30:24.741Z,6.70
2022-10-25T04:32:53.135Z,7.00
2022-10-25T04:35:21.661Z,6.27
2022-10-25T04:37:52.022Z,6.17
2022-10-25T04:40:22.651Z,6.43
2022-10-25T04:42:53.282Z,5.90
2022-10-25T04:45:21.858Z,5.70
2022-10-25T04:47:50.295Z,5.87
2022-10-25T04:50:18.782Z,6.07
2022-10-25T04:52:47.438Z,6.07
2022-10-25T04:55:17.602Z,5.70
2022-10-25T04:57:46.022Z,6.47
2022-10-25T05:00:14.975Z,6.73
2022-10-25T05:02:43.909Z,6.70
2022-10-25T05:05:13.413Z,7.03
2022-10-25T05:07:41.922Z,6.83
2022-10-25T05:10:10.779Z,7.50
2022-10-25T05:12:40.708Z,6.77
2022-10-25T05:15:09.753Z,7.13
2022-10-25T05:17:38.220Z,6.90
2022-10-25T05:20:07.496Z,7.10
2022-10-25T05:22:35.919Z,7.37
2022-10-25T05:25:04.422Z,6.80
2022-10-25T05:27:32.877Z,7.60
2022-10-25T05:30:02.759Z,6.83
2022-10-25T05:32:31.915Z,6.93
2022-10-25T05:35:00.403Z,7.10
2022-10-25T05:37:28.936Z,7.73
2022-10-25T05:39:57.402Z,7.37
2022-10-25T05:42:25.924Z,7.87
2022-10-25T05:44:55.452Z,6.97
2022-10-25T05:47:25.293Z,7.50
2022-10-25T05:49:53.944Z,7.60
2022-10-25T05:52:22.382Z,7.10
2022-10-25T05:54:50.922Z,6.83
2022-10-25T05:57:20.529Z,6.80
2022-10-25T05:59:49.001Z,7.03
2022-10-25T06:02:17.530Z,6.80
2022-10-25T06:04:51.633Z,8.33
2022-10-25T06:07:20.994Z,7.03
2022-10-25T06:09:49.461Z,7.43
2022-10-25T06:12:17.884Z,7.60
2022-10-25T06:14:46.383Z,7.17
2022-10-25T06:17:14.835Z,7.37
2022-10-25T06:19:43.359Z,6.70
2022-10-25T06:22:13.305Z,6.73
2022-10-25T06:24:41.838Z,6.00
2022-10-25T06:27:11.239Z,6.17
2022-10-25T06:29:39.792Z,5.50
2022-10-25T06:32:08.220Z,5.47
2022-10-25T06:34:36.701Z,5.57
2022-10-25T06:37:05.802Z,5.77
2022-10-25T06:39:35.691Z,5.10
2022-10-25T06:42:04.115Z,5.80
2022-10-25T06:44:32.588Z,5.47
2022-10-25T06:47:17.124Z,5.33
2022-10-25T06:49:46.102Z,4.63
2022-10-25T06:52:14.715Z,5.23
2022-10-25T06:54:44.623Z,5.20
2022-10-25T06:57:13.042Z,5.00
2022-10-25T06:59:41.600Z,4.60
2022-10-25T07:02:11.130Z,4.43
2022-10-25T07:04:39.871Z,5.10
2022-10-25T07:07:08.281Z,5.20
2022-10-25T07:09:36.812Z,4.80
2022-10-25T07:12:12.282Z,4.87
2022-10-25T07:14:41.267Z,4.90
2022-10-25T07:17:09.693Z,5.20
2022-10-25T07:19:38.157Z,5.20
2022-10-25T07:22:06.571Z,4.80
2022-10-25T07:24:35.035Z,4.77
2022-10-25T07:27:03.474Z,4.33
2022-10-25T07:29:33.540Z,4.80
2022-10-25T07:32:01.985Z,4.93
2022-10-25T07:34:30.757Z,5.07
2022-10-25T07:36:59.177Z,5.00
2022-10-25T07:39:27.716Z,4.70
2022-10-25T07:41:56.180Z,4.37
2022-10-25T07:44:25.117Z,4.90
2022-10-25T07:46:55.730Z,5.20
2022-10-25T07:49:24.250Z,4.73
2022-10-25T07:51:52.669Z,4.90
2022-10-25T07:54:21.143Z,5.10
2022-10-25T07:56:49.573Z,5.07
2022-10-25T07:59:18.060Z,4.63
2022-10-25T08:01:46.636Z,4.47
2022-10-25T08:04:16.555Z,4.90
2022-10-25T08:06:45.083Z,4.33
2022-10-25T08:09:14.972Z,4.70
2022-10-25T08:11:55.068Z,4.20
2022-10-25T08:16:52.306Z,4.63
2022-10-25T08:19:22.212Z,4.97
2022-10-25T08:21:50.641Z,4.40
2022-10-25T08:26:48.466Z,4.50
2022-10-25T08:29:17.061Z,4.37
2022-10-25T08:31:46.373Z,4.33
2022-10-25T08:34:14.841Z,4.60
2022-10-25T08:36:44.729Z,4.90
2022-10-25T08:39:13.314Z,4.67
2022-10-25T08:41:50.199Z,4.80
2022-10-25T08:44:20.842Z,5.00
2022-10-25T08:46:54.504Z,4.70
2022-10-25T08:49:26.827Z,4.37
2022-10-25T08:51:58.210Z,4.00
2022-10-25T08:54:29.227Z,4.47
2022-10-25T08:57:17.592Z,4.60
2022-10-25T08:59:47.939Z,4.10
2022-10-25T09:02:19.666Z,4.10
2022-10-25T09:04:48.366Z,4.15
2022-10-25T09:07:30.467Z,4.40
2022-10-25T09:10:03.947Z,3.70
2022-10-25T09:12:37.428Z,4.00
2022-10-25T09:15:08.685Z,3.83
2022-10-25T09:17:38.527Z,3.60
2022-10-25T09:20:07.976Z,3.67
2022-10-25T09:22:44.327Z,3.53
2022-10-25T09:25:17.748Z,3.53
2022-10-25T09:27:52.950Z,3.40
2022-10-25T09:30:21.449Z,3.55
2022-10-25T09:32:51.008Z,3.40
2022-10-25T09:35:20.641Z,3.17
2022-10-25T09:37:51.366Z,3.53
2022-10-25T09:40:21.208Z,3.55
2022-10-25T09:42:51.756Z,3.40
2022-10-25T09:45:23.733Z,3.50
2022-10-25T09:47:54.448Z,3.60
2022-10-25T09:50:26.816Z,3.37
2022-10-25T09:53:00.886Z,3.60
2022-10-25T09:55:34.561Z,3.72
2022-10-25T09:58:03.480Z,3.78
2022-10-25T10:00:32.021Z,3.25
2022-10-25T10:03:01.469Z,3.22
2022-10-25T10:05:30.991Z,3.63
2022-10-25T10:08:00.828Z,2.90
2022-10-25T10:10:34.306Z,3.28
2022-10-25T10:13:05.898Z,2.97
2022-10-25T10:15:38.748Z,3.15
2022-10-25T10:18:27.174Z,3.35
2022-10-25T10:21:03.573Z,3.38
2022-10-25T10:23:34.829Z,3.30
2022-10-25T10:26:04.645Z,3.92
2022-10-25T10:28:33.620Z,3.80
2022-10-25T10:31:02.093Z,4.03
2022-10-25T10:33:33.155Z,4.05
2022-10-25T10:36:16.857Z,3.92
2022-10-25T10:38:47.358Z,4.10
2022-10-25T10:41:17.181Z,4.00
2022-10-25T10:43:45.671Z,4.10
2022-10-25T10:46:16.462Z,3.77
2022-10-25T10:48:46.169Z,3.67
2022-10-25T10:51:38.941Z,4.07
2022-10-25T10:54:16.022Z,3.47
2022-10-25T10:56:44.645Z,4.17
2022-10-25T10:59:27.432Z,3.58
2022-10-25T11:01:56.601Z,3.73
2022-10-25T11:04:26.247Z,3.28
2022-10-25T11:06:55.535Z,3.70
2022-10-25T11:09:26.146Z,3.30
2022-10-25T11:12:08.541Z,3.10
2022-10-25T11:14:37.008Z,3.10
2022-10-25T11:17:08.751Z,3.55
2022-10-25T11:19:51.086Z,3.10
2022-10-25T11:22:30.721Z,3.05
2022-10-25T11:25:08.641Z,3.40
2022-10-25T11:27:44.469Z,2.42
2022-10-25T11:30:15.364Z,2.92
2022-10-25T11:32:52.809Z,2.67
2022-10-25T11:35:30.052Z,2.58
2022-10-25T11:38:01.173Z,2.63
2022-10-25T11:40:31.790Z,2.42
2022-10-25T11:43:06.072Z,3.00
2022-10-25T11:45:38.568Z,2.40
2022-10-25T11:48:15.851Z,2.60
2022-10-25T11:50:49.803Z,2.43
2022-10-25T11:53:26.871Z,2.60
2022-10-25T11:55:58.890Z,2.78
2022-10-25T11:58:35.752Z,2.40
2022-10-25T12:01:08.819Z,2.63
2022-10-25T12:03:44.613Z,2.30
2022-10-25T12:06:17.710Z,2.33
2022-10-25T12:08:53.370Z,2.60
2022-10-25T12:11:26.232Z,2.50
2022-10-25T12:13:56.970Z,2.53
2022-10-25T12:16:25.535Z,2.35
2022-10-25T12:18:58.987Z,2.63
2022-10-25T12:21:28.400Z,2.33
2022-10-25T12:23:57.315Z,2.75
2022-10-25T12:26:30.079Z,2.28
2022-10-25T12:29:00.239Z,2.30
2022-10-25T12:31:29.825Z,2.15
2022-10-25T12:34:01.779Z,2.92
2022-10-25T12:36:33.191Z,2.53
2022-10-25T12:39:02.743Z,2.22
2022-10-25T12:41:34.504Z,2.10
2022-10-25T12:44:17.963Z,2.00
2022-10-25T12:47:02.865Z,1.98
2022-10-25T12:49:52.147Z,1.70
2022-10-25T12:52:25.558Z,1.88
2022-10-25T12:55:22.047Z,1.92
2022-10-25T12:57:57.067Z,1.92
2022-10-25T13:00:25.942Z,1.85
2022-10-25T13:03:10.311Z,1.80
2022-10-25T13:05:56.083Z,2.17
2022-10-25T13:08:25.310Z,2.08
2022-10-25T13:10:58.849Z,3.97
2022-10-25T13:13:30.845Z,9.57
2022-10-25T13:16:00.268Z,11.25
2022-10-25T13:18:41.082Z,8.57
2022-10-25T13:21:10.582Z,6.13
2022-10-25T13:23:49.481Z,2.38
2022-10-25T13:26:18.290Z,1.88
2022-10-25T13:28:49.830Z,1.75
2022-10-25T13:31:46.883Z,1.70
2022-10-25T13:34:31.404Z,1.85
2022-10-25T13:37:00.751Z,2.00
2022-10-25T13:39:31.978Z,1.67
2022-10-25T13:42:04.369Z,1.95
2022-10-25T13:44:34.425Z,1.98
2022-10-25T13:47:02.869Z,1.73
2022-10-25T13:49:33.255Z,1.70
2022-10-25T13:52:05.099Z,1.67
2022-10-25T13:54:40.261Z,2.00
2022-10-25T13:57:28.693Z,1.70
2022-10-25T14:00:02.458Z,1.85
2022-10-25T14:02:31.226Z,1.63
2022-10-25T14:04:59.821Z,1.70
2022-10-25T14:07:47.988Z,1.70
2022-10-25T14:10:26.563Z,2.00
2022-10-25T14:12:57.268Z,1.90
2022-10-25T14:15:32.522Z,1.80
2022-10-25T14:18:01.162Z,2.00
2022-10-25T14:20:31.295Z,1.88
2022-10-25T14:23:01.773Z,2.05
2022-10-25T14:25:33.899Z,1.92
2022-10-25T14:28:06.853Z,2.13
2022-10-25T14:30:38.678Z,1.90
2022-10-25T14:33:07.853Z,1.70
2022-10-25T14:35:37.319Z,2.22
2022-10-25T14:38:14.285Z,1.77
2022-10-25T14:40:42.775Z,1.58
2022-10-25T14:43:15.276Z,1.90
2022-10-25T14:45:56.419Z,1.85
2022-10-25T14:48:24.926Z,1.90
2022-10-25T14:50:53.681Z,1.88
2022-10-25T14:53:22.367Z,2.10
2022-10-25T14:55:55.392Z,2.00
2022-10-25T14:58:25.120Z,1.60
2022-10-25T15:00:56.613Z,2.05
2022-10-25T15:03:25.562Z,2.22
2022-10-25T15:05:54.315Z,1.80
2022-10-25T15:08:25.328Z,1.90
2022-10-25T15:10:56.250Z,2.00
2022-10-25T15:13:28.513Z,1.63
2022-10-25T15:15:59.880Z,1.65
2022-10-25T15:18:34.089Z,1.90
2022-10-25T15:21:06.857Z,2.10
2022-10-25T15:23:35.614Z,1.87
2022-10-25T15:26:26.557Z,2.30
2022-10-25T15:28:56.336Z,2.45
2022-10-25T15:31:26.973Z,1.90
2022-10-25T15:33:59.828Z,2.20
2022-10-25T15:36:29.154Z,2.30
2022-10-25T15:39:08.227Z,2.13
2022-10-25T15:41:40.063Z,3.33
2022-10-25T15:44:08.588Z,2.65
2022-10-25T15:46:38.436Z,2.60
2022-10-25T15:49:08.594Z,2.63
2022-10-25T15:51:39.644Z,2.00
2022-10-25T15:54:11.751Z,2.40
2022-10-25T15:56:40.268Z,2.43
2022-10-25T15:59:08.865Z,2.20
2022-10-25T16:01:39.173Z,2.30
2022-10-25T16:04:08.261Z,1.97
2022-10-25T16:06:36.890Z,2.57
2022-10-25T16:09:05.526Z,2.40
2022-10-25T16:11:37.774Z,2.17
2022-10-25T16:14:06.771Z,2.60
2022-10-25T16:16:40.328Z,2.70
2022-10-25T16:19:14.309Z,2.60
2022-10-25T16:21:43.200Z,3.27
2022-10-25T16:24:11.816Z,2.83
2022-10-25T16:26:42.908Z,3.10
2022-10-25T16:29:15.254Z,3.00
2022-10-25T16:31:43.958Z,2.73
2022-10-25T16:34:15.566Z,2.80
2022-10-25T16:36:44.017Z,3.63
2022-10-25T16:39:12.570Z,4.43
2022-10-25T16:41:41.741Z,3.67
2022-10-25T16:44:12.000Z,3.70
2022-10-25T16:46:40.498Z,3.10
2022-10-25T16:49:09.782Z,3.73
2022-10-25T16:51:39.922Z,3.30
2022-10-25T16:54:08.644Z,3.30
2022-10-25T16:56:37.082Z,3.43
2022-10-25T16:59:05.551Z,3.63
2022-10-25T17:01:38.948Z,3.50
2022-10-25T17:04:11.589Z,3.60
2022-10-25T17:06:42.333Z,3.67
2022-10-25T17:09:11.424Z,4.60
2022-10-25T17:11:39.893Z,4.67
2022-10-25T17:14:09.767Z,4.67
2022-10-25T17:16:38.688Z,4.60
2022-10-25T17:19:07.293Z,4.60
2022-10-25T17:21:35.887Z,4.80
2022-10-25T17:24:09.967Z,5.10
2022-10-25T17:26:39.107Z,4.70
2022-10-25T17:29:07.702Z,5.13
2022-10-25T17:31:36.173Z,5.03
2022-10-25T17:34:05.202Z,4.90
2022-10-25T17:36:34.698Z,5.30
2022-10-25T17:39:03.150Z,5.87
2022-10-25T17:41:32.987Z,5.67
2022-10-25T17:44:01.420Z,5.37
2022-10-25T17:46:30.889Z,5.70
2022-10-25T17:49:03.147Z,6.13
2022-10-25T17:51:32.261Z,6.10
2022-10-25T17:54:00.781Z,6.60
2022-10-25T17:56:34.071Z,10.13
2022-10-25T17:59:04.445Z,7.83
2022-10-25T18:01:35.921Z,7.20
2022-10-25T18:04:04.583Z,6.90
2022-10-25T18:06:33.079Z,6.67
2022-10-25T18:09:03.874Z,6.43
2022-10-25T18:11:33.832Z,6.10
2022-10-25T18:14:03.101Z,6.20
2022-10-25T18:16:32.223Z,6.43
2022-10-25T18:19:01.385Z,6.77
2022-10-25T18:21:30.646Z,6.87
2022-10-25T18:23:59.874Z,6.73
2022-10-25T18:26:28.802Z,7.10
2022-10-25T18:28:58.887Z,7.43
2022-10-25T18:31:28.083Z,7.67
2022-10-25T18:33:58.819Z,7.10
2022-10-25T18:36:27.725Z,7.47
2022-10-25T18:38:56.390Z,8.43
2022-10-25T18:41:25.475Z,8.13
2022-10-25T18:43:54.889Z,9.27
2022-10-25T18:46:25.496Z,8.10
2022-10-25T18:48:54.316Z,8.30
2022-10-25T18:51:24.267Z,8.33
2022-10-25T18:53:55.072Z,8.27
2022-10-25T18:56:23.636Z,8.80
2022-10-25T18:58:56.731Z,8.73
2022-10-25T19:01:28.116Z,8.80
2022-10-25T19:03:58.225Z,8.53
2022-10-25T19:06:27.076Z,9.93
2022-10-25T19:08:55.864Z,9.60
2022-10-25T19:11:24.549Z,10.40
2022-10-25T19:13:54.979Z,10.50
2022-10-25T19:16:23.608Z,10.97
2022-10-25T19:18:54.263Z,11.90
2022-10-25T19:21:22.727Z,12.00
2022-10-25T19:23:54.151Z,11.40
2022-10-25T19:26:23.731Z,12.10
2022-10-25T19:28:57.389Z,13.57
2022-10-25T19:31:25.934Z,13.33
2022-10-25T19:33:58.447Z,13.23
2022-10-25T19:36:27.022Z,12.87
2022-10-25T19:38:55.446Z,13.80
2022-10-25T19:41:25.709Z,15.27
2022-10-25T19:43:57.603Z,12.90
2022-10-25T19:46:26.384Z,11.83
2022-10-25T19:48:57.043Z,11.37
2022-10-25T19:51:25.657Z,11.10
2022-10-25T19:53:54.242Z,11.70
2022-10-25T19:56:25.985Z,11.37
2022-10-25T19:58:54.544Z,10.87
2022-10-25T20:01:24.382Z,11.40
2022-10-25T20:03:54.651Z,11.33
2022-10-25T20:06:25.753Z,10.63
2022-10-25T20:08:54.437Z,12.43
2022-10-25T20:11:23.996Z,11.13
2022-10-25T20:13:54.755Z,12.57
2022-10-25T20:16:23.646Z,12.20
2022-10-25T20:18:54.366Z,12.33
2022-10-25T20:21:24.773Z,13.13
2022-10-25T20:23:55.988Z,14.43
2022-10-25T20:26:25.699Z,14.37
2022-10-25T20:28:54.327Z,15.07
2022-10-25T20:31:23.561Z,14.93
2022-10-25T20:33:52.307Z,15.10
2022-10-25T20:36:20.832Z,16.77
2022-10-25T20:38:50.714Z,16.77
2022-10-25T20:41:20.366Z,16.07
2022-10-25T20:43:50.692Z,15.63
2022-10-25T20:46:19.706Z,17.07
2022-10-25T20:48:48.226Z,17.40
2022-10-25T20:51:17.847Z,17.33
2022-10-25T20:53:46.921Z,17.20
2022-10-25T20:56:17.034Z,16.53
2022-10-25T20:58:45.681Z,15.83
2022-10-25T21:01:14.420Z,15.93
2022-10-25T21:03:43.024Z,17.30
2022-10-25T21:06:13.015Z,15.97
2022-10-25T21:08:41.693Z,16.00
2022-10-25T21:11:11.956Z,15.23
2022-10-25T21:13:42.058Z,15.63
2022-10-25T21:16:11.623Z,14.57
2022-10-25T21:18:40.289Z,15.00
2022-10-25T21:21:09.841Z,14.77
2022-10-25T21:23:38.459Z,14.73
2022-10-25T21:26:08.016Z,15.63
2022-10-25T21:28:37.154Z,16.40
2022-10-25T21:31:07.963Z,15.93
2022-10-25T21:33:36.404Z,16.33
2022-10-25T21:36:05.653Z,15.87
2022-10-25T21:38:34.079Z,14.63
2022-10-25T21:41:09.417Z,16.37
2022-10-25T21:43:37.969Z,15.63
2022-10-25T21:46:08.516Z,15.57
2022-10-25T21:48:37.043Z,15.17
2022-10-25T21:51:05.881Z,15.20
2022-10-25T21:53:34.585Z,16.03
2022-10-25T21:56:07.071Z,15.47
2022-10-25T21:58:35.712Z,16.13
2022-10-25T22:01:04.263Z,13.60
2022-10-25T22:03:34.176Z,12.23
2022-10-25T22:06:02.692Z,12.17
2022-10-25T22:08:31.096Z,12.10
2022-10-25T22:13:33.367Z,12.00
2022-10-25T22:16:03.034Z,11.80
2022-10-25T22:18:31.458Z,11.10
2022-10-25T22:21:02.170Z,11.37
2022-10-25T22:23:31.348Z,11.73
2022-10-25T22:26:01.660Z,11.83
2022-10-25T22:28:30.188Z,11.37
2022-10-25T22:30:59.124Z,10.90
2022-10-25T22:33:27.572Z,12.07
2022-10-25T22:35:56.066Z,11.40
2022-10-25T22:38:25.901Z,10.70
2022-10-25T22:40:58.313Z,11.70
2022-10-25T22:43:26.764Z,10.60
2022-10-25T22:45:55.346Z,11.23
2022-10-25T22:48:24.355Z,10.70
2022-10-25T22:50:53.472Z,11.43
2022-10-25T22:53:22.620Z,11.00
2022-10-25T22:55:59.780Z,10.87
2022-10-25T22:58:29.139Z,10.97
2022-10-25T23:01:00.522Z,11.60
2022-10-25T23:03:28.963Z,10.90
2022-10-25T23:06:00.359Z,10.83
2022-10-25T23:08:29.169Z,9.80
2022-10-25T23:11:03.507Z,9.30
2022-10-25T23:13:33.837Z,9.10
2022-10-25T23:16:02.572Z,9.33
2022-10-25T23:18:31.241Z,9.63
2022-10-25T23:21:00.808Z,9.83
2022-10-25T23:23:30.247Z,9.73
2022-10-25T23:26:01.483Z,9.97
2022-10-25T23:28:33.523Z,11.77
2022-10-25T23:31:05.517Z,10.67
2022-10-25T23:33:34.386Z,11.07
2022-10-25T23:36:03.796Z,11.13
2022-10-25T23:38:32.470Z,11.20
2022-10-25T23:41:00.951Z,10.13
2022-10-25T23:43:29.717Z,10.93
2022-10-25T23:45:59.670Z,11.37
2022-10-25T23:48:28.388Z,12.57
2022-10-25T23:50:58.234Z,13.47
2022-10-25T23:53:27.095Z,12.30
2022-10-25T23:55:55.622Z,11.97
2022-10-25T23:58:24.392Z,11.30
